createdAt,value
2019-05-18T00:00:33.463Z,98597.02
2019-05-18T00:03:38.675Z,98604.00
2019-05-18T00:06:43.874Z,98602.27
2019-05-18T00:09:49.085Z,98608.46
2019-05-18T00:12:54.299Z,98602.45
2019-05-18T00:15:59.475Z,98602.65
2019-05-18T00:19:04.641Z,98611.20
2019-05-18T00:22:09.751Z,98610.39
2019-05-18T00:25:16.095Z,98611.73
2019-05-18T00:28:21.264Z,98604.69
2019-05-18T00:31:26.434Z,98606.84
2019-05-18T00:34:31.667Z,98611.58
2019-05-18T00:37:36.916Z,98613.13
2019-05-18T00:40:42.111Z,98615.63
2019-05-18T00:43:47.239Z,98613.34
2019-05-18T00:46:52.404Z,98614.13
2019-05-18T00:49:57.547Z,98621.05
2019-05-18T00:53:02.956Z,98618.27
2019-05-18T00:56:08.280Z,98617.92
2019-05-18T00:59:16.098Z,98613.30
2019-05-18T01:02:20.406Z,98611.95
2019-05-18T01:05:25.519Z,98605.59
2019-05-18T01:08:30.670Z,98609.47
2019-05-18T01:11:36.098Z,98604.08
2019-05-18T01:14:41.269Z,98609.20
2019-05-18T01:17:57.033Z,98605.11
2019-05-18T01:20:53.324Z,98607.50
2019-05-18T01:23:58.452Z,98613.20
2019-05-18T01:27:03.734Z,98606.11
2019-05-18T01:30:10.629Z,98604.22
2019-05-18T01:33:15.952Z,98605.87
2019-05-18T01:36:21.105Z,98605.56
2019-05-18T01:39:26.266Z,98609.03
2019-05-18T01:42:31.504Z,98610.16
2019-05-18T01:45:36.681Z,98603.33
2019-05-18T01:48:41.758Z,98607.10
2019-05-18T01:51:46.847Z,98608.62
2019-05-18T01:54:52.035Z,98604.85
2019-05-18T01:57:57.199Z,98611.59
2019-05-18T02:01:02.293Z,98611.91
2019-05-18T02:04:07.433Z,98611.72
2019-05-18T02:07:12.547Z,98607.50
2019-05-18T02:10:17.845Z,98605.93
2019-05-18T02:13:24.098Z,98614.61
2019-05-18T02:16:29.231Z,98605.48
2019-05-18T02:19:34.354Z,98608.58
2019-05-18T02:22:39.538Z,98608.11
2019-05-18T02:25:44.675Z,98603.98
2019-05-18T02:28:49.843Z,98592.39
2019-05-18T02:31:54.996Z,98601.23
2019-05-18T02:35:00.162Z,98596.59
2019-05-18T02:38:17.890Z,98595.62
2019-05-18T02:41:23.071Z,98590.75
2019-05-18T02:44:28.198Z,98591.08
2019-05-18T02:47:33.331Z,98588.38
2019-05-18T02:50:38.517Z,98586.75
2019-05-18T02:53:43.716Z,98580.30
2019-05-18T02:56:48.928Z,98581.23
2019-05-18T02:59:54.144Z,98577.63
2019-05-18T03:02:59.255Z,98578.22
2019-05-18T03:06:04.589Z,98574.70
2019-05-18T03:09:09.955Z,98566.48
2019-05-18T03:12:15.131Z,98568.39
2019-05-18T03:15:20.340Z,98564.56
2019-05-18T03:18:25.473Z,98555.59
2019-05-18T03:21:30.666Z,98553.84
2019-05-18T03:24:35.855Z,98552.63
2019-05-18T03:27:41.156Z,98553.17
2019-05-18T03:30:46.460Z,98552.79
2019-05-18T03:33:51.576Z,98560.00
2019-05-18T03:36:56.736Z,98560.25
2019-05-18T03:40:01.810Z,98569.36
2019-05-18T03:43:08.124Z,98566.02
2019-05-18T03:46:13.456Z,98564.32
2019-05-18T03:49:26.609Z,98566.52
2019-05-18T03:52:25.531Z,98567.55
2019-05-18T03:55:30.699Z,98565.92
2019-05-18T03:58:35.902Z,98572.55
2019-05-18T04:01:41.041Z,98575.67
2019-05-18T04:04:46.238Z,98571.02
2019-05-18T04:07:51.376Z,98571.47
2019-05-18T04:10:56.768Z,98581.45
2019-05-18T04:14:01.956Z,98587.03
2019-05-18T04:17:07.150Z,98582.90
2019-05-18T04:20:12.521Z,98590.98
2019-05-18T04:23:17.673Z,98588.15
2019-05-18T04:26:22.847Z,98591.93
2019-05-18T04:29:27.973Z,98599.56
2019-05-18T04:32:33.109Z,98594.62
2019-05-18T04:35:38.296Z,98597.98
2019-05-18T04:38:43.598Z,98599.52
2019-05-18T04:41:48.775Z,98602.16
2019-05-18T04:44:53.932Z,98606.44
2019-05-18T04:47:59.121Z,98606.11
2019-05-18T04:51:04.257Z,98604.49
2019-05-18T04:54:09.400Z,98604.74
2019-05-18T04:57:14.597Z,98607.48
2019-05-18T05:00:19.894Z,98611.27
2019-05-18T05:03:25.158Z,98613.92
2019-05-18T05:06:30.295Z,98619.09
2019-05-18T05:09:35.450Z,98622.22
2019-05-18T05:12:40.622Z,98623.65
2019-05-18T05:15:45.770Z,98624.69
2019-05-18T05:18:50.857Z,98623.00
2019-05-18T05:21:56.081Z,98621.14
2019-05-18T05:25:02.640Z,98617.95
2019-05-18T05:28:07.941Z,98622.34
2019-05-18T05:31:13.265Z,98616.63
2019-05-18T05:34:18.372Z,98616.78
2019-05-18T05:37:23.566Z,98616.55
2019-05-18T05:40:28.686Z,98619.60
2019-05-18T05:43:33.891Z,98618.06
2019-05-18T05:46:39.058Z,98624.28
2019-05-18T05:49:44.326Z,98625.73
2019-05-18T05:52:49.502Z,98620.07
2019-05-18T05:55:54.606Z,98622.92
2019-05-18T05:58:59.756Z,98622.44
2019-05-18T06:02:04.943Z,98629.91
2019-05-18T06:05:10.326Z,98627.81
2019-05-18T06:08:15.552Z,98632.82
2019-05-18T06:11:20.695Z,98635.64
2019-05-18T06:14:26.776Z,98627.87
2019-05-18T06:17:31.914Z,98628.40
2019-05-18T06:20:50.494Z,98622.71
2019-05-18T06:23:43.981Z,98629.77
2019-05-18T06:26:49.198Z,98622.13
2019-05-18T06:29:54.383Z,98617.80
2019-05-18T06:32:59.572Z,98616.43
2019-05-18T06:36:04.897Z,98623.90
2019-05-18T06:39:10.080Z,98614.87
2019-05-18T06:42:15.433Z,98621.78
2019-05-18T06:45:20.770Z,98623.54
2019-05-18T06:48:25.907Z,98624.90
2019-05-18T06:51:32.139Z,98629.45
2019-05-18T06:54:37.526Z,98626.00
2019-05-18T06:57:43.129Z,98629.73
2019-05-18T07:00:48.246Z,98629.55
2019-05-18T07:03:53.367Z,98623.28
2019-05-18T07:06:58.671Z,98633.73
2019-05-18T07:10:03.915Z,98632.58
2019-05-18T07:13:09.162Z,98632.33
2019-05-18T07:16:14.437Z,98640.55
2019-05-18T07:19:19.668Z,98643.52
2019-05-18T07:22:25.577Z,98640.64
2019-05-18T07:25:30.792Z,98630.15
2019-05-18T07:28:35.963Z,98629.48
2019-05-18T07:31:41.169Z,98634.39
2019-05-18T07:34:46.394Z,98630.90
2019-05-18T07:37:51.600Z,98634.89
2019-05-18T07:40:56.787Z,98641.97
2019-05-18T07:44:03.247Z,98638.39
2019-05-18T07:47:08.544Z,98637.16
2019-05-18T07:50:14.364Z,98629.91
2019-05-18T07:53:19.597Z,98630.14
2019-05-18T07:56:24.815Z,98630.14
2019-05-18T07:59:30.059Z,98627.45
2019-05-18T08:02:35.515Z,98627.41
2019-05-18T08:05:40.976Z,98628.42
2019-05-18T08:08:46.284Z,98624.73
2019-05-18T08:11:51.476Z,98620.11
2019-05-18T08:14:56.817Z,98620.95
2019-05-18T08:18:01.981Z,98622.75
2019-05-18T08:21:07.150Z,98619.00
2019-05-18T08:24:12.420Z,98613.77
2019-05-18T08:27:17.790Z,98617.38
2019-05-18T08:30:23.029Z,98617.38
2019-05-18T08:33:28.283Z,98608.44
2019-05-18T08:36:33.501Z,98600.93
2019-05-18T08:39:38.627Z,98600.93
2019-05-18T08:42:43.806Z,98607.45
2019-05-18T08:45:49.076Z,98593.69
2019-05-18T08:48:55.044Z,98604.11
2019-05-18T08:52:08.435Z,98604.31
2019-05-18T08:55:08.294Z,98601.55
2019-05-18T08:58:13.453Z,98597.04
2019-05-18T09:01:18.658Z,98592.08
2019-05-18T09:04:23.891Z,98594.01
2019-05-18T09:07:29.094Z,98594.39
2019-05-18T09:10:34.268Z,98594.36
2019-05-18T09:13:39.450Z,98592.95
2019-05-18T09:16:44.612Z,98598.93
2019-05-18T09:19:50.747Z,98600.92
2019-05-18T09:22:55.961Z,98590.48
2019-05-18T09:26:01.080Z,98588.80
2019-05-18T09:29:06.312Z,98588.46
2019-05-18T09:32:11.658Z,98586.82
2019-05-18T09:35:17.801Z,98583.14
2019-05-18T09:38:23.328Z,98583.27
2019-05-18T09:41:28.685Z,98585.19
2019-05-18T09:44:33.858Z,98581.52
2019-05-18T09:47:40.182Z,98577.68
2019-05-18T09:50:45.383Z,98577.33
2019-05-18T09:53:51.879Z,98577.82
2019-05-18T09:56:57.295Z,98576.72
2019-05-18T10:00:02.594Z,98571.13
2019-05-18T10:03:07.768Z,98568.22
2019-05-18T10:06:12.935Z,98565.77
2019-05-18T10:09:18.166Z,98575.45
2019-05-18T10:12:24.818Z,98576.95
2019-05-18T10:15:30.231Z,98566.95
2019-05-18T10:18:35.414Z,98567.20
2019-05-18T10:21:40.593Z,98564.59
2019-05-18T10:24:45.794Z,98559.29
2019-05-18T10:27:50.986Z,98547.92
2019-05-18T10:30:56.184Z,98555.73
2019-05-18T10:34:01.470Z,98551.29
2019-05-18T10:37:07.793Z,98552.36
2019-05-18T10:40:13.536Z,98547.41
2019-05-18T10:43:18.697Z,98547.23
2019-05-18T10:46:23.863Z,98555.26
2019-05-18T10:49:29.084Z,98544.42
2019-05-18T10:52:34.304Z,98543.86
2019-05-18T10:55:39.591Z,98537.76
2019-05-18T10:58:44.839Z,98534.47
2019-05-18T11:01:49.997Z,98543.52
2019-05-18T11:04:55.210Z,98535.44
2019-05-18T11:08:00.418Z,98535.30
2019-05-18T11:11:05.627Z,98528.26
2019-05-18T11:14:10.960Z,98532.08
2019-05-18T11:17:16.151Z,98535.27
2019-05-18T11:20:21.410Z,98528.11
2019-05-18T11:23:26.569Z,98529.50
2019-05-18T11:26:31.747Z,98527.35
2019-05-18T11:29:36.882Z,98535.27
2019-05-18T11:32:42.023Z,98523.37
2019-05-18T11:35:47.277Z,98526.83
2019-05-18T11:38:52.446Z,98517.87
2019-05-18T11:41:57.699Z,98530.63
2019-05-18T11:45:02.867Z,98521.03
2019-05-18T11:48:08.172Z,98521.86
2019-05-18T11:51:13.400Z,98519.33
2019-05-18T11:54:18.559Z,98518.11
2019-05-18T11:57:23.733Z,98508.59
2019-05-18T12:00:29.425Z,98509.02
2019-05-18T12:03:34.545Z,98501.30
2019-05-18T12:06:39.752Z,98499.73
2019-05-18T12:09:47.466Z,98497.13
2019-05-18T12:12:51.812Z,98499.63
2019-05-18T12:15:57.016Z,98492.05
2019-05-18T12:19:02.206Z,98497.91
2019-05-18T12:22:07.421Z,98493.48
2019-05-18T12:25:13.115Z,98494.00
2019-05-18T12:28:18.290Z,98492.97
2019-05-18T12:31:23.477Z,98486.64
2019-05-18T12:34:28.678Z,98493.06
2019-05-18T12:37:33.945Z,98486.26
2019-05-18T12:40:39.120Z,98484.50
2019-05-18T12:43:44.349Z,98480.94
2019-05-18T12:46:49.429Z,98473.27
2019-05-18T12:49:54.685Z,98470.03
2019-05-18T12:52:59.752Z,98465.80
2019-05-18T12:56:04.975Z,98464.48
2019-05-18T12:59:10.244Z,98455.31
2019-05-18T13:02:15.537Z,98455.31
2019-05-18T13:05:20.850Z,98450.30
2019-05-18T13:08:26.960Z,98446.28
2019-05-18T13:11:32.108Z,98448.64
2019-05-18T13:14:37.321Z,98449.34
2019-05-18T13:17:42.467Z,98449.66
2019-05-18T13:20:47.685Z,98444.05
2019-05-18T13:23:52.803Z,98440.95
2019-05-18T13:26:58.192Z,98440.52
2019-05-18T13:30:03.446Z,98434.05
2019-05-18T13:33:08.693Z,98436.13
2019-05-18T13:36:13.918Z,98429.73
2019-05-18T13:39:19.087Z,98422.54
2019-05-18T13:42:24.612Z,98427.38
2019-05-18T13:45:29.819Z,98415.64
2019-05-18T13:48:34.980Z,98414.47
2019-05-18T13:51:40.138Z,98415.72
2019-05-18T13:55:01.211Z,98407.37
2019-05-18T13:57:52.235Z,98412.52
2019-05-18T14:00:57.409Z,98403.56
2019-05-18T14:04:02.636Z,98401.50
2019-05-18T14:07:07.795Z,98401.54
2019-05-18T14:10:14.611Z,98403.84
2019-05-18T14:13:19.806Z,98393.70
2019-05-18T14:16:24.982Z,98394.20
2019-05-18T14:19:30.305Z,98389.33
2019-05-18T14:22:35.458Z,98384.63
2019-05-18T14:25:40.606Z,98384.03
2019-05-18T14:28:45.744Z,98381.77
2019-05-18T14:31:50.944Z,98378.78
2019-05-18T14:34:56.179Z,98374.41
2019-05-18T14:38:01.401Z,98379.04
2019-05-18T14:41:06.564Z,98365.39
2019-05-18T14:44:11.767Z,98369.34
2019-05-18T14:47:16.981Z,98370.20
2019-05-18T14:50:22.316Z,98369.84
2019-05-18T14:53:27.454Z,98363.64
2019-05-18T14:56:32.643Z,98361.98
2019-05-18T14:59:37.771Z,98358.64
2019-05-18T15:02:42.935Z,98359.00
2019-05-18T15:05:48.104Z,98359.45
2019-05-18T15:08:53.292Z,98363.41
2019-05-18T15:11:58.434Z,98361.65
2019-05-18T15:15:03.709Z,98352.92
2019-05-18T15:18:09.618Z,98352.72
2019-05-18T15:21:14.762Z,98350.48
2019-05-18T15:24:20.044Z,98355.19
2019-05-18T15:27:25.441Z,98353.47
2019-05-18T15:30:30.608Z,98353.91
2019-05-18T15:33:35.751Z,98355.59
2019-05-18T15:36:40.985Z,98350.28
2019-05-18T15:39:46.160Z,98342.38
2019-05-18T15:42:51.498Z,98349.40
2019-05-18T15:45:56.628Z,98341.91
2019-05-18T15:49:01.967Z,98344.02
2019-05-18T15:52:07.197Z,98345.45
2019-05-18T15:55:12.768Z,98334.11
2019-05-18T15:58:17.925Z,98336.52
2019-05-18T16:01:23.095Z,98330.08
2019-05-18T16:04:28.304Z,98330.23
2019-05-18T16:07:33.537Z,98336.06
2019-05-18T16:10:38.744Z,98335.88
2019-05-18T16:13:43.990Z,98334.45
2019-05-18T16:16:49.332Z,98334.11
2019-05-18T16:19:55.042Z,98333.02
2019-05-18T16:23:00.316Z,98340.59
2019-05-18T16:26:20.350Z,98341.81
2019-05-18T16:29:12.479Z,98336.05
2019-05-18T16:32:17.716Z,98342.04
2019-05-18T16:35:24.002Z,98337.20
2019-05-18T16:38:29.190Z,98334.19
2019-05-18T16:41:34.480Z,98336.73
2019-05-18T16:44:40.181Z,98338.27
2019-05-18T16:47:45.614Z,98340.31
2019-05-18T16:50:50.833Z,98339.62
2019-05-18T16:53:55.920Z,98337.20
2019-05-18T16:57:01.116Z,98342.80
2019-05-18T17:00:06.620Z,98343.34
2019-05-18T17:03:11.985Z,98345.36
2019-05-18T17:06:17.213Z,98342.78
2019-05-18T17:09:22.463Z,98351.80
2019-05-18T17:12:27.719Z,98350.84
2019-05-18T17:15:32.881Z,98348.05
2019-05-18T17:18:38.176Z,98363.45
2019-05-18T17:21:43.604Z,98363.39
2019-05-18T17:24:48.859Z,98365.03
2019-05-18T17:27:54.059Z,98362.37
2019-05-18T17:30:59.262Z,98358.34
2019-05-18T17:34:04.572Z,98374.22
2019-05-18T17:37:09.758Z,98413.35
2019-05-18T17:40:16.353Z,98411.50
2019-05-18T17:43:21.573Z,98416.88
2019-05-18T17:46:26.974Z,98424.86
2019-05-18T17:49:32.211Z,98441.47
2019-05-18T17:52:37.375Z,98430.91
2019-05-18T17:55:42.614Z,98436.55
2019-05-18T17:58:47.853Z,98442.80
2019-05-18T18:01:53.279Z,98442.84
2019-05-18T18:04:58.720Z,98442.84
2019-05-18T18:08:04.056Z,98463.26
2019-05-18T18:11:11.901Z,98463.26
2019-05-18T18:14:16.328Z,98460.33
2019-05-18T18:17:22.804Z,98495.05
2019-05-18T18:20:28.023Z,98520.19
2019-05-18T18:23:33.364Z,98550.43
2019-05-18T18:26:38.876Z,98578.59
2019-05-18T18:29:44.178Z,98582.19
2019-05-18T18:32:49.373Z,98577.22
2019-05-18T18:35:54.749Z,98574.34
2019-05-18T18:39:00.043Z,98568.52
2019-05-18T18:42:05.219Z,98553.95
2019-05-18T18:45:11.453Z,98544.81
2019-05-18T18:48:16.712Z,98497.38
2019-05-18T18:51:21.862Z,98487.72
2019-05-18T18:54:27.110Z,98483.71
2019-05-18T18:57:41.586Z,98448.77
2019-05-18T19:00:51.276Z,98434.13
2019-05-18T19:03:56.459Z,98434.59
2019-05-18T19:07:01.666Z,98432.10
2019-05-18T19:10:07.286Z,98431.30
2019-05-18T19:13:50.519Z,98445.44
2019-05-18T19:17:03.495Z,98458.06
2019-05-18T19:20:09.269Z,98471.24
2019-05-18T19:23:14.352Z,98478.84
2019-05-18T19:26:19.717Z,98490.83
2019-05-18T19:29:24.944Z,98509.30
2019-05-18T19:32:33.724Z,98520.17
2019-05-18T19:35:39.002Z,98521.80
2019-05-18T19:38:44.214Z,98542.39
2019-05-18T19:41:49.371Z,98552.41
2019-05-18T19:44:54.659Z,98549.44
2019-05-18T19:47:59.952Z,98550.27
2019-05-18T19:51:05.223Z,98546.18
2019-05-18T19:54:10.486Z,98543.20
2019-05-18T19:57:15.635Z,98539.14
2019-05-18T20:00:21.206Z,98543.22
2019-05-18T20:03:26.567Z,98534.00
2019-05-18T20:06:31.888Z,98536.14
2019-05-18T20:09:37.117Z,98536.69
2019-05-18T20:12:42.476Z,98534.23
2019-05-18T20:15:47.651Z,98534.53
2019-05-18T20:18:52.891Z,98533.41
2019-05-18T20:21:58.042Z,98532.88
2019-05-18T20:25:03.312Z,98540.20
2019-05-18T20:28:22.668Z,98570.84
2019-05-18T20:31:15.426Z,98621.31
2019-05-18T20:34:20.694Z,98610.20
2019-05-18T20:37:25.887Z,98597.99
2019-05-18T20:40:31.174Z,98622.44
2019-05-18T20:43:36.617Z,98621.63
2019-05-18T20:46:41.783Z,98618.66
2019-05-18T20:49:46.936Z,98635.17
2019-05-18T20:52:52.139Z,98642.19
2019-05-18T20:55:57.306Z,98636.41
2019-05-18T20:59:02.484Z,98630.44
2019-05-18T21:02:07.584Z,98626.06
2019-05-18T21:05:13.082Z,98627.42
2019-05-18T21:08:18.224Z,98635.28
2019-05-18T21:11:23.388Z,98635.84
2019-05-18T21:14:28.541Z,98622.02
2019-05-18T21:17:33.875Z,98616.87
2019-05-18T21:20:39.194Z,98609.81
2019-05-18T21:23:44.437Z,98582.95
2019-05-18T21:26:49.692Z,98567.48
2019-05-18T21:29:54.974Z,98555.27
2019-05-18T21:33:00.109Z,98553.11
2019-05-18T21:36:05.275Z,98548.51
2019-05-18T21:39:10.668Z,98560.98
2019-05-18T21:42:15.879Z,98574.30
2019-05-18T21:45:21.337Z,98587.61
2019-05-18T21:48:26.500Z,98591.97
2019-05-18T21:51:31.632Z,98591.11
2019-05-18T21:54:36.921Z,98594.34
2019-05-18T21:57:42.122Z,98605.18
2019-05-18T22:00:49.632Z,98605.38
2019-05-18T22:03:54.881Z,98604.53
2019-05-18T22:07:00.068Z,98606.17
2019-05-18T22:10:05.957Z,98599.30
2019-05-18T22:13:11.184Z,98594.17
2019-05-18T22:16:16.402Z,98595.86
2019-05-18T22:19:21.583Z,98590.11
2019-05-18T22:22:26.672Z,98593.67
2019-05-18T22:25:31.884Z,98580.31
2019-05-18T22:28:37.060Z,98571.33
2019-05-18T22:31:42.195Z,98580.81
2019-05-18T22:34:47.412Z,98577.27
2019-05-18T22:37:52.556Z,98571.84
2019-05-18T22:40:57.750Z,98572.40
2019-05-18T22:44:02.878Z,98572.45
2019-05-18T22:47:08.101Z,98570.45
2019-05-18T22:50:13.408Z,98568.73
2019-05-18T22:53:18.592Z,98565.50
2019-05-18T22:56:23.740Z,98560.56
2019-05-18T22:59:29.014Z,98553.89
2019-05-18T23:02:34.402Z,98550.33
2019-05-18T23:05:39.514Z,98549.69
2019-05-18T23:08:44.781Z,98555.33
2019-05-18T23:11:49.993Z,98540.97
2019-05-18T23:14:55.137Z,98542.58
2019-05-18T23:18:00.357Z,98541.19
2019-05-18T23:21:05.478Z,98533.08
2019-05-18T23:24:10.849Z,98525.19
2019-05-18T23:27:15.980Z,98531.47
2019-05-18T23:30:21.211Z,98525.78
2019-05-18T23:33:33.891Z,98523.84
2019-05-18T23:36:41.106Z,98517.63
2019-05-18T23:39:50.090Z,98511.10
2019-05-18T23:42:55.187Z,98504.89
2019-05-18T23:46:00.342Z,98503.47
2019-05-18T23:49:10.821Z,98496.41
2019-05-18T23:52:12.474Z,98498.01
2019-05-18T23:55:17.694Z,98494.43
2019-05-18T23:58:22.868Z,98493.08
